| time (UTC) | temp F | wind direction | speed MPH | gust MPH | rain 1hr in | rain 24hr in | rain mn in | humidity % | barometer mb |
| 20260507120032 | 60 | 346 | 3.0 | 9.0 | 0.00 | 0.00 | 0.00 | 57 | 1014.8 |
| 20260507114520 | 61 | 50 | 3.0 | 9.0 | 0.00 | 0.00 | 0.00 | 57 | 1014.9 |
| 20260507113018 | 60 | 259 | 0.0 | 5.0 | 0.00 | 0.00 | 0.00 | 60 | 1014.7 |
| 20260507111551 | 58 | 341 | 1.0 | 4.0 | 0.00 | 0.00 | 0.00 | 64 | 1015.0 |
| 20260507110009 | 57 | 344 | 2.0 | 8.0 | 0.00 | 0.00 | 0.00 | 64 | 1014.9 |
| 20260507104510 | 57 | 329 | 1.0 | 5.0 | 0.00 | 0.00 | 0.00 | 65 | 1015.0 |
| 20260507103007 | 56 | 311 | 2.0 | 9.0 | 0.00 | 0.00 | 0.00 | 66 | 1015.0 |
| 20260507101506 | 57 | 321 | 4.0 | 10.0 | 0.00 | 0.00 | 0.00 | 65 | 1015.1 |
| 20260507100003 | 57 | 16 | 2.0 | 6.0 | 0.00 | 0.00 | 0.00 | 66 | 1015.1 |
| 20260507094502 | 57 | 355 | 1.0 | 5.0 | 0.00 | 0.00 | 0.00 | 64 | 1015.2 |
| 20260507093004 | 58 | 325 | 2.0 | 8.0 | 0.00 | 0.00 | 0.00 | 67 | 1015.2 |
| 20260507091503 | 57 | 339 | 2.0 | 9.0 | 0.00 | 0.00 | 0.00 | 67 | 1015.1 |
| 20260507090022 | 57 | 343 | 3.0 | 7.0 | 0.00 | 0.00 | 0.00 | 68 | 1015.0 |
| 20260507084516 | 57 | 338 | 4.0 | 9.0 | 0.00 | 0.00 | 0.00 | 72 | 1014.9 |
| 20260507083013 | 57 | 360 | 2.0 | 6.0 | 0.00 | 0.00 | 0.00 | 74 | 1015.0 |
| 20260507081520 | 55 | 360 | 2.0 | 9.0 | 0.00 | 0.00 | 0.00 | 78 | 1015.0 |
| 20260507080011 | 54 | 47 | 3.0 | 7.0 | 0.00 | 0.00 | 0.00 | 81 | 1014.9 |
| 20260507074521 | 52 | 32 | 4.0 | 6.0 | 0.00 | 0.00 | 0.00 | 85 | 1014.9 |
| 20260507073008 | 51 | 51 | 2.0 | 6.0 | 0.00 | 0.00 | 0.00 | 87 | 1014.9 |
| 20260507071506 | 50 | 40 | 3.0 | 8.0 | 0.00 | 0.00 | 0.00 | 89 | 1014.8 |
| 20260507070010 | 48 | 16 | 2.0 | 7.0 | 0.00 | 0.00 | 0.00 | 90 | 1014.9 |
| 20260507064506 | 47 | 21 | 2.0 | 6.0 | 0.00 | 0.01 | 0.00 | 91 | 1014.9 |
| 20260507063103 | 46 | 338 | 3.0 | 5.0 | 0.00 | 0.01 | 0.00 | 91 | 1014.8 |
| 20260507061518 | 45 | 346 | 1.0 | 5.0 | 0.00 | 0.01 | 0.00 | 92 | 1014.7 |
| 20260507060017 | 44 | 332 | 2.0 | 5.0 | 0.00 | 0.01 | 0.00 | 92 | 1014.7 |
| 20260507054519 | 42 | 330 | 2.0 | 5.0 | 0.00 | 0.02 | 0.00 | 92 | 1014.6 |
| 20260507053012 | 42 | 324 | 2.0 | 5.0 | 0.00 | 0.02 | 0.00 | 92 | 1014.4 |
| 20260507051510 | 41 | 329 | 2.0 | 5.0 | 0.00 | 0.02 | 0.00 | 92 | 1014.3 |
| 20260507050017 | 41 | 316 | 3.0 | 5.0 | 0.00 | 0.02 | 0.00 | 91 | 1014.1 |
| 20260507044506 | 41 | 310 | 3.0 | 5.0 | 0.00 | 0.03 | 0.00 | 91 | 1014.1 |
| 20260507043004 | 41 | 313 | 3.0 | 4.0 | 0.00 | 0.03 | 0.00 | 91 | 1014.0 |
| 20260507041505 | 41 | 313 | 3.0 | 5.0 | 0.00 | 0.03 | 0.00 | 91 | 1014.0 |
| 20260507040007 | 41 | 311 | 3.0 | 5.0 | 0.00 | 0.03 | 0.00 | 91 | 1013.8 |
| 20260507034603 | 41 | 315 | 3.0 | 5.0 | 0.00 | 0.05 | 0.00 | 90 | 1013.7 |
| 20260507031515 | 41 | 313 | 3.0 | 5.0 | 0.00 | 0.05 | 0.00 | 90 | 1013.8 |
| 20260507030018 | 42 | 311 | 4.0 | 6.0 | 0.00 | 0.05 | 0.00 | 90 | 1013.8 |
| 20260507024511 | 42 | 310 | 4.0 | 5.0 | 0.00 | 0.06 | 0.00 | 90 | 1013.7 |
| 20260507023010 | 42 | 311 | 3.0 | 6.0 | 0.00 | 0.06 | 0.00 | 90 | 1013.9 |
| 20260507021509 | 42 | 313 | 3.0 | 6.0 | 0.00 | 0.06 | 0.00 | 90 | 1013.9 |
| 20260507020007 | 42 | 315 | 2.0 | 4.0 | 0.00 | 0.06 | 0.00 | 90 | 1013.7 |
| 20260507014508 | 42 | 315 | 2.0 | 5.0 | 0.00 | 0.08 | 0.00 | 90 | 1013.6 |
| 20260507013007 | 42 | 315 | 1.0 | 3.0 | 0.00 | 0.08 | 0.00 | 89 | 1013.5 |
| 20260507011506 | 42 | 315 | 0.0 | 3.0 | 0.00 | 0.08 | 0.00 | 89 | 1013.6 |
| 20260507010007 | 42 | 315 | 2.0 | 5.0 | 0.00 | 0.08 | 0.00 | 89 | 1013.4 |
| 20260507004507 | 42 | 313 | 3.0 | 6.0 | 0.00 | 0.09 | 0.00 | 89 | 1013.5 |
| 20260507003004 | 43 | 312 | 4.0 | 5.0 | 0.00 | 0.09 | 0.00 | 89 | 1013.4 |
| 20260507001607 | 43 | 313 | 2.0 | 5.0 | 0.00 | 0.09 | 0.00 | 88 | 1013.5 |
| 20260507000030 | 43 | 308 | 2.0 | 5.0 | 0.00 | 0.09 | 0.00 | 88 | 1013.4 |
| 20260506234521 | 43 | 315 | 1.0 | 4.0 | 0.00 | 0.10 | 0.00 | 87 | 1013.4 |
| 20260506233017 | 43 | 316 | 2.0 | 4.0 | 0.00 | 0.10 | 0.00 | 87 | 1013.5 |
| 20260506231515 | 44 | 316 | 2.0 | 5.0 | 0.00 | 0.10 | 0.00 | 86 | 1013.4 |
| 20260506230013 | 44 | 316 | 2.0 | 3.0 | 0.00 | 0.10 | 0.00 | 86 | 1013.5 |
| 20260506224512 | 44 | 316 | 2.0 | 4.0 | 0.00 | 0.13 | 0.00 | 86 | 1013.3 |
| 20260506223012 | 45 | 317 | 2.0 | 4.0 | 0.00 | 0.13 | 0.00 | 85 | 1013.4 |
| 20260506221510 | 45 | 316 | 2.0 | 5.0 | 0.00 | 0.13 | 0.00 | 84 | 1013.2 |
| 20260506220015 | 46 | 315 | 2.0 | 4.0 | 0.00 | 0.13 | 0.00 | 84 | 1013.3 |
| 20260506214506 | 46 | 315 | 1.0 | 5.0 | 0.00 | 0.18 | 0.13 | 83 | 1013.1 |
| 20260506213127 | 46 | 316 | 2.0 | 5.0 | 0.00 | 0.18 | 0.13 | 82 | 1013.0 |
| 20260506211518 | 47 | 317 | 2.0 | 4.0 | 0.00 | 0.18 | 0.13 | 81 | 1013.0 |
| 20260506210016 | 48 | 316 | 2.0 | 4.0 | 0.00 | 0.18 | 0.13 | 80 | 1012.9 |
| 20260506204520 | 48 | 317 | 2.0 | 4.0 | 0.00 | 0.27 | 0.13 | 79 | 1012.8 |
| 20260506203017 | 49 | 316 | 1.0 | 4.0 | 0.00 | 0.27 | 0.13 | 78 | 1012.7 |
| 20260506201519 | 49 | 315 | 2.0 | 4.0 | 0.00 | 0.27 | 0.13 | 77 | 1012.6 |
| 20260506200010 | 50 | 315 | 1.0 | 4.0 | 0.00 | 0.27 | 0.13 | 76 | 1012.5 |
| 20260506194515 | 50 | 311 | 2.0 | 5.0 | 0.00 | 0.39 | 0.13 | 75 | 1012.3 |
| 20260506193006 | 51 | 312 | 3.0 | 5.0 | 0.00 | 0.39 | 0.13 | 74 | 1012.1 |
| 20260506191505 | 52 | 304 | 2.0 | 5.0 | 0.00 | 0.39 | 0.13 | 73 | 1011.8 |
| 20260506190006 | 52 | 320 | 3.0 | 8.0 | 0.00 | 0.39 | 0.13 | 71 | 1011.7 |
| 20260506184605 | 53 | 314 | 3.0 | 8.0 | 0.00 | 0.46 | 0.13 | 70 | 1011.6 |
| 20260506183019 | 53 | 300 | 6.0 | 11.0 | 0.00 | 0.46 | 0.13 | 68 | 1011.4 |
| 20260506181517 | 54 | 315 | 7.0 | 13.0 | 0.00 | 0.46 | 0.13 | 67 | 1011.3 |
| 20260506180016 | 54 | 306 | 4.0 | 12.0 | 0.00 | 0.46 | 0.13 | 69 | 1011.2 |
| 20260506174515 | 54 | 307 | 8.0 | 13.0 | 0.00 | 0.53 | 0.13 | 70 | 1011.0 |
| 20260506173013 | 54 | 311 | 8.0 | 13.0 | 0.00 | 0.53 | 0.13 | 70 | 1010.9 |
| 20260506171512 | 55 | 310 | 11.0 | 18.0 | 0.00 | 0.53 | 0.13 | 67 | 1010.8 |
| 20260506170011 | 57 | 305 | 8.0 | 17.0 | 0.00 | 0.53 | 0.13 | 65 | 1010.5 |
| 20260506164508 | 58 | 331 | 5.0 | 13.0 | 0.00 | 0.55 | 0.13 | 67 | 1010.6 |
| 20260506163019 | 58 | 11 | 8.0 | 14.0 | 0.00 | 0.55 | 0.13 | 68 | 1010.4 |
| 20260506161506 | 59 | 302 | 7.0 | 16.0 | 0.00 | 0.55 | 0.13 | 62 | 1010.5 |
| 20260506160016 | 58 | 342 | 9.0 | 16.0 | 0.00 | 0.55 | 0.13 | 62 | 1010.4 |
| 20260506154517 | 59 | 328 | 10.0 | 15.0 | 0.00 | 0.61 | 0.13 | 61 | 1010.5 |
| 20260506153015 | 58 | 313 | 8.0 | 18.0 | 0.00 | 0.61 | 0.13 | 62 | 1010.4 |
| 20260506151515 | 57 | 295 | 8.0 | 14.0 | 0.00 | 0.61 | 0.13 | 67 | 1010.5 |
| 20260506150014 | 58 | 294 | 12.0 | 16.0 | 0.00 | 0.61 | 0.13 | 61 | 1010.4 |
| 20260506144512 | 58 | 280 | 6.0 | 13.0 | 0.00 | 0.71 | 0.13 | 64 | 1010.4 |
| 20260506143013 | 58 | 271 | 5.0 | 12.0 | 0.00 | 0.71 | 0.13 | 64 | 1010.4 |
| 20260506141509 | 57 | 317 | 5.0 | 12.0 | 0.00 | 0.71 | 0.13 | 66 | 1010.5 |
| 20260506140010 | 57 | 331 | 5.0 | 12.0 | 0.00 | 0.71 | 0.13 | 65 | 1010.3 |
| 20260506134523 | 57 | 331 | 6.0 | 14.0 | 0.00 | 0.83 | 0.13 | 65 | 1010.5 |
| 20260506133004 | 57 | 296 | 8.0 | 14.0 | 0.00 | 0.83 | 0.13 | 65 | 1010.5 |
| 20260506131605 | 57 | 277 | 1.0 | 7.0 | 0.00 | 0.83 | 0.13 | 73 | 1010.6 |
| 20260506130020 | 56 | 304 | 1.0 | 8.0 | 0.00 | 0.83 | 0.13 | 75 | 1010.6 |
| 20260506124551 | 55 | 294 | 2.0 | 8.0 | 0.00 | 0.88 | 0.13 | 76 | 1010.5 |
| 20260506123008 | 54 | 315 | 5.0 | 10.0 | 0.00 | 0.88 | 0.13 | 76 | 1010.4 |
| 20260506121506 | 54 | 339 | 3.0 | 10.0 | 0.00 | 0.88 | 0.13 | 77 | 1010.4 |